Time;durP1;ratioP1;P1;durP2;ratioP2;P2;SDS_P1;SDS_P2;PMS_P1;PMS_P2;Temp;Humidity;BMP_temperature;BMP_pressure;BME280_temperature;BME280_humidity;BME280_pressure;Samples;Min_cycle;Max_cycle;Signal;HPM_P1;HPM_P2
2021/06/19 00:00:39;;;;;;;12.70;8.13;;;22.90;99.90;;;;;;5063545;28;20421;-77
2021/06/19 00:03:07;;;;;;;12.63;8.38;;;22.80;99.90;;;;;;5065896;28;20396;-76
2021/06/19 00:05:33;;;;;;;11.88;8.02;;;22.80;99.90;;;;;;5081654;28;20663;-76
2021/06/19 00:07:59;;;;;;;14.77;8.43;;;22.70;99.90;;;;;;5060984;28;20115;-76
2021/06/19 00:10:25;;;;;;;10.35;7.65;;;22.70;99.90;;;;;;5063473;28;20041;-76
2021/06/19 00:12:51;;;;;;;11.45;8.05;;;22.70;99.90;;;;;;5046097;28;20082;-77
2021/06/19 00:15:20;;;;;;;14.13;8.25;;;22.60;99.90;;;;;;5061910;28;20422;-72
2021/06/19 00:17:48;;;;;;;14.00;10.77;;;22.60;99.90;;;;;;5065174;28;20106;-76
2021/06/19 00:20:24;;;;;;;10.98;9.13;;;22.60;99.90;;;;;;5066265;28;20028;-76
2021/06/19 00:22:49;;;;;;;13.57;9.43;;;22.50;99.90;;;;;;5060398;28;20589;-77
2021/06/19 00:25:19;;;;;;;13.30;8.68;;;22.40;99.90;;;;;;5047704;28;20075;-76
2021/06/19 00:27:45;;;;;;;13.55;8.45;;;22.40;99.90;;;;;;5063449;28;20420;-76
2021/06/19 00:30:14;;;;;;;12.80;8.23;;;22.40;99.90;;;;;;5056683;28;20033;-76
2021/06/19 00:32:42;;;;;;;13.57;9.02;;;22.40;99.90;;;;;;5057809;28;20117;-77
2021/06/19 00:35:08;;;;;;;11.25;8.80;;;22.40;99.90;;;;;;5054485;28;20040;-76
2021/06/19 00:37:34;;;;;;;12.93;8.80;;;22.40;99.90;;;;;;5056131;28;20031;-76
2021/06/19 00:40:02;;;;;;;11.60;9.15;;;22.40;99.90;;;;;;5058088;28;20465;-77
2021/06/19 00:42:30;;;;;;;12.65;9.07;;;22.40;99.90;;;;;;5056897;28;20062;-77
2021/06/19 00:45:01;;;;;;;15.82;9.50;;;22.40;99.90;;;;;;5058081;28;20032;-78
2021/06/19 00:47:29;;;;;;;10.88;8.50;;;22.40;99.90;;;;;;5055010;28;20457;-78
2021/06/19 00:49:55;;;;;;;13.27;8.88;;;22.40;99.90;;;;;;5060354;28;20028;-77
2021/06/19 00:52:21;;;;;;;11.70;9.02;;;22.40;99.90;;;;;;5057089;28;20046;-77
2021/06/19 00:54:47;;;;;;;13.48;8.93;;;22.40;99.90;;;;;;5057842;28;20047;-77
2021/06/19 00:57:12;;;;;;;13.25;8.93;;;22.40;99.90;;;;;;5059786;28;20031;-78
2021/06/19 00:59:38;;;;;;;11.07;8.75;;;22.50;99.90;;;;;;5049510;28;20134;-77
2021/06/19 01:02:04;;;;;;;13.32;9.00;;;22.40;99.90;;;;;;5044210;28;20051;-77
2021/06/19 01:04:30;;;;;;;12.70;8.27;;;22.50;99.90;;;;;;5042551;28;20057;-77
2021/06/19 01:06:57;;;;;;;13.48;8.23;;;22.40;99.90;;;;;;5056679;28;20160;-77
2021/06/19 01:09:23;;;;;;;17.52;8.85;;;22.50;99.90;;;;;;5041406;28;20078;-77
2021/06/19 01:11:49;;;;;;;14.55;9.05;;;22.50;99.90;;;;;;5062812;28;20457;-77
2021/06/19 01:14:15;;;;;;;18.05;9.48;;;22.50;99.90;;;;;;5043369;28;20055;-77
2021/06/19 01:16:41;;;;;;;12.30;8.60;;;22.50;99.90;;;;;;5061430;28;20028;-77
2021/06/19 01:19:06;;;;;;;11.48;8.68;;;22.50;99.90;;;;;;5045590;28;20038;-77
2021/06/19 01:21:34;;;;;;;14.15;8.95;;;22.50;99.90;;;;;;5062458;28;20058;-77
2021/06/19 01:24:00;;;;;;;11.65;8.95;;;22.50;99.90;;;;;;5061107;28;20048;-76
2021/06/19 01:26:28;;;;;;;16.17;9.02;;;22.50;99.90;;;;;;5060163;28;20032;-77
2021/06/19 01:28:53;;;;;;;14.15;8.75;;;22.50;99.90;;;;;;5058249;28;20109;-77
2021/06/19 01:31:19;;;;;;;18.00;9.50;;;22.50;99.90;;;;;;5053423;28;20497;-76
2021/06/19 01:33:48;;;;;;;11.43;8.50;;;22.50;99.90;;;;;;5040785;28;20045;-76
2021/06/19 01:36:15;;;;;;;18.88;9.25;;;22.40;99.90;;;;;;5042566;28;20024;-76
2021/06/19 01:38:48;;;;;;;18.30;10.05;;;22.40;99.90;;;;;;5059875;28;20432;-76
2021/06/19 01:41:32;;;;;;;14.55;9.07;;;22.40;99.90;;;;;;5072922;28;20111;-77
2021/06/19 01:44:09;;;;;;;15.43;9.82;;;22.40;99.90;;;;;;5038549;28;20461;-76
2021/06/19 01:46:36;;;;;;;13.05;8.30;;;22.30;99.90;;;;;;5059167;28;20025;-76
2021/06/19 01:49:02;;;;;;;13.00;8.63;;;22.20;99.90;;;;;;5055984;28;20024;-77
2021/06/19 01:51:30;;;;;;;13.90;8.63;;;22.20;99.90;;;;;;5057648;28;20096;-76
2021/06/19 01:53:56;;;;;;;14.35;8.80;;;22.20;99.90;;;;;;5056247;28;20021;-76
2021/06/19 01:56:22;;;;;;;12.48;8.23;;;22.20;99.90;;;;;;5063791;28;20036;-77
2021/06/19 01:58:50;;;;;;;12.73;9.13;;;22.10;99.90;;;;;;5026891;28;20029;-77
2021/06/19 02:01:21;;;;;;;11.68;8.73;;;22.10;99.90;;;;;;5056194;28;20044;-77
2021/06/19 02:03:49;;;;;;;11.95;8.07;;;22.10;99.90;;;;;;5058133;28;20044;-77
2021/06/19 02:06:17;;;;;;;12.95;8.93;;;22.10;99.90;;;;;;5061920;28;20028;-77
2021/06/19 02:08:47;;;;;;;13.82;8.93;;;22.00;99.90;;;;;;5060258;28;20028;-77
2021/06/19 02:11:13;;;;;;;14.27;8.05;;;22.00;99.90;;;;;;5081381;28;20063;-77
2021/06/19 02:13:39;;;;;;;12.88;8.05;;;22.00;99.90;;;;;;5058847;28;20044;-77
2021/06/19 02:16:05;;;;;;;14.57;8.57;;;22.00;99.90;;;;;;5060315;28;20036;-77
2021/06/19 02:18:30;;;;;;;12.43;8.43;;;22.00;99.90;;;;;;5056196;28;20381;-76
2021/06/19 02:21:01;;;;;;;11.75;8.07;;;22.00;99.90;;;;;;5050185;28;20120;-76
2021/06/19 02:23:26;;;;;;;12.73;8.35;;;22.00;99.90;;;;;;5056031;28;20520;-76
2021/06/19 02:25:52;;;;;;;15.52;9.27;;;21.90;99.90;;;;;;5065301;28;20036;-77
2021/06/19 02:28:20;;;;;;;12.07;8.85;;;21.90;99.90;;;;;;5064280;28;20060;-77
2021/06/19 02:30:46;;;;;;;17.83;8.85;;;21.90;99.90;;;;;;5078408;28;20112;-77
2021/06/19 02:33:12;;;;;;;12.90;9.13;;;21.90;99.90;;;;;;5044481;28;20028;-77
2021/06/19 02:35:39;;;;;;;11.40;8.68;;;21.90;99.90;;;;;;5060098;28;20112;-77
2021/06/19 02:38:07;;;;;;;15.00;9.02;;;21.90;99.90;;;;;;5054628;28;20596;-78
2021/06/19 02:40:33;;;;;;;11.95;8.23;;;21.90;99.90;;;;;;5070628;28;20484;-77
2021/06/19 02:42:59;;;;;;;12.07;8.68;;;21.90;99.90;;;;;;5064574;28;20028;-77
2021/06/19 02:45:26;;;;;;;14.43;9.10;;;21.90;99.90;;;;;;5062610;28;20109;-78
2021/06/19 02:47:56;;;;;;;13.05;8.95;;;21.90;99.90;;;;;;5066608;28;20043;-77
2021/06/19 02:50:29;;;;;;;16.38;8.80;;;21.90;99.90;;;;;;5066237;28;20075;-77
2021/06/19 02:52:58;;;;;;;14.85;9.32;;;21.90;99.90;;;;;;5076648;28;20445;-78
2021/06/19 02:55:25;;;;;;;17.90;9.15;;;21.80;99.90;;;;;;5056236;28;20052;-77
2021/06/19 02:57:51;;;;;;;20.17;10.05;;;21.80;99.90;;;;;;5059551;28;20525;-77
2021/06/19 03:00:17;;;;;;;15.23;9.00;;;21.80;99.90;;;;;;5060100;28;20028;-77
2021/06/19 03:02:45;;;;;;;14.18;9.50;;;21.80;99.90;;;;;;5059717;28;20024;-77
2021/06/19 03:05:12;;;;;;;21.10;10.18;;;21.80;99.90;;;;;;5043730;28;20410;-77
2021/06/19 03:07:41;;;;;;;14.52;9.00;;;21.70;99.90;;;;;;5042540;28;20040;-77
2021/06/19 03:10:08;;;;;;;21.63;10.38;;;21.70;99.90;;;;;;5041612;28;20040;-77
2021/06/19 03:12:33;;;;;;;18.38;9.90;;;21.70;99.90;;;;;;5061268;28;20347;-77
2021/06/19 03:15:01;;;;;;;14.57;8.45;;;21.70;99.90;;;;;;5061600;28;20032;-77
2021/06/19 03:17:29;;;;;;;25.02;10.38;;;21.60;99.90;;;;;;5061760;28;20033;-78
2021/06/19 03:19:55;;;;;;;18.13;9.45;;;21.60;99.90;;;;;;5062504;28;20021;-77
2021/06/19 03:22:23;;;;;;;15.50;10.02;;;21.60;99.90;;;;;;5051858;28;20087;-77
2021/06/19 03:24:48;;;;;;;17.05;9.45;;;21.50;99.90;;;;;;5061768;28;20063;-77
2021/06/19 03:27:18;;;;;;;12.55;9.27;;;21.50;99.90;;;;;;5062185;28;20024;-77
2021/06/19 03:29:47;;;;;;;12.45;9.20;;;21.50;99.90;;;;;;5060820;28;20077;-78
2021/06/19 03:32:15;;;;;;;14.65;8.48;;;21.50;99.90;;;;;;5058134;28;20029;-77
2021/06/19 03:34:41;;;;;;;13.35;8.93;;;21.50;99.90;;;;;;5059002;28;20020;-77
2021/06/19 03:37:09;;;;;;;13.23;9.40;;;21.50;99.90;;;;;;5058661;28;20461;-77
2021/06/19 03:39:35;;;;;;;12.40;8.85;;;21.40;99.90;;;;;;5059968;28;20032;-77
2021/06/19 03:42:03;;;;;;;13.30;8.73;;;21.40;99.90;;;;;;5057819;28;20051;-77
2021/06/19 03:44:29;;;;;;;24.65;11.32;;;21.40;99.90;;;;;;5058635;28;20484;-77
2021/06/19 03:46:55;;;;;;;15.80;9.27;;;21.40;99.90;;;;;;5058277;28;20037;-77
2021/06/19 03:49:21;;;;;;;17.40;9.25;;;21.40;99.90;;;;;;5056243;28;20063;-77
2021/06/19 03:51:47;;;;;;;13.77;9.10;;;21.40;99.90;;;;;;5057186;28;20025;-77
2021/06/19 03:54:15;;;;;;;17.40;8.90;;;21.40;99.90;;;;;;5050085;28;20025;-77
2021/06/19 03:56:40;;;;;;;22.52;10.23;;;21.30;99.90;;;;;;5061556;28;20413;-77
2021/06/19 03:59:09;;;;;;;13.07;8.60;;;21.30;99.90;;;;;;5053294;28;20040;-77
2021/06/19 04:01:39;;;;;;;17.45;8.90;;;21.30;99.90;;;;;;5057085;28;20037;-77
2021/06/19 04:04:05;;;;;;;10.93;8.27;;;21.20;99.90;;;;;;5058594;28;20462;-77
2021/06/19 04:06:30;;;;;;;22.05;10.27;;;21.20;99.90;;;;;;5058529;28;20039;-77
2021/06/19 04:08:56;;;;;;;16.30;8.93;;;21.20;99.90;;;;;;5048034;28;20020;-77
2021/06/19 04:11:21;;;;;;;21.42;8.93;;;21.20;99.90;;;;;;5062194;28;20478;-77
2021/06/19 04:13:49;;;;;;;10.23;6.97;;;21.20;99.90;;;;;;5045262;28;20462;-77
2021/06/19 04:16:17;;;;;;;8.15;5.80;;;21.20;99.90;;;;;;5061989;28;20024;-77
2021/06/19 04:18:45;;;;;;;6.97;5.18;;;21.20;99.90;;;;;;5079128;28;20032;-77
2021/06/19 04:21:10;;;;;;;6.75;4.63;;;21.10;99.90;;;;;;5060440;28;20043;-77
2021/06/19 04:23:36;;;;;;;8.15;4.55;;;21.10;99.90;;;;;;5057753;28;20036;-78
2021/06/19 04:26:02;;;;;;;9.52;5.28;;;21.10;99.90;;;;;;5058517;28;20556;-77
2021/06/19 04:28:28;;;;;;;8.10;5.20;;;21.10;99.90;;;;;;5058621;28;20880;-77
2021/06/19 04:30:58;;;;;;;11.00;5.05;;;21.00;99.90;;;;;;5063672;28;20021;-77
2021/06/19 04:33:26;;;;;;;7.18;4.15;;;21.00;99.90;;;;;;5064377;28;20127;-77
2021/06/19 04:35:52;;;;;;;6.55;4.00;;;21.00;99.90;;;;;;5060895;28;20016;-77
2021/06/19 04:38:18;;;;;;;6.97;4.40;;;21.00;99.90;;;;;;5060011;28;20070;-77
2021/06/19 04:41:05;;;;;;;8.05;4.57;;;21.00;99.90;;;;;;5056746;28;20123;-77
2021/06/19 04:44:05;;;;;;;7.70;5.10;;;21.00;99.90;;;;;;5057912;28;20627;-78
2021/06/19 04:46:18;;;;;;;9.05;4.90;;;20.90;99.90;;;;;;5060215;28;20037;-78
2021/06/19 04:48:46;;;;;;;10.30;5.28;;;21.00;99.90;;;;;;5064094;28;20373;-77
2021/06/19 04:51:17;;;;;;;8.95;5.55;;;21.00;99.90;;;;;;5057081;28;20124;-77
2021/06/19 04:53:43;;;;;;;7.13;4.90;;;21.10;99.90;;;;;;5058117;28;20056;-77
2021/06/19 04:56:11;;;;;;;10.73;5.90;;;21.20;99.90;;;;;;5055030;28;20119;-77
2021/06/19 04:58:36;;;;;;;7.53;5.75;;;21.20;99.90;;;;;;5056314;28;20515;-77
2021/06/19 05:01:04;;;;;;;13.18;6.30;;;21.20;99.90;;;;;;5056814;28;20040;-77
2021/06/19 05:03:32;;;;;;;13.82;6.55;;;21.30;99.90;;;;;;5056866;28;20028;-77
2021/06/19 05:06:00;;;;;;;9.55;5.90;;;21.30;99.90;;;;;;5059065;28;20032;-77
2021/06/19 05:08:26;;;;;;;9.32;5.70;;;21.30;99.90;;;;;;5057232;28;20597;-77
2021/06/19 05:10:51;;;;;;;8.45;5.43;;;21.40;99.90;;;;;;5059428;28;20025;-77
2021/06/19 05:13:18;;;;;;;9.65;4.75;;;21.40;99.90;;;;;;5076784;28;20273;-77
2021/06/19 05:15:46;;;;;;;8.27;5.00;;;21.40;99.90;;;;;;5057637;28;20039;-77
2021/06/19 05:18:12;;;;;;;7.95;5.07;;;21.40;99.90;;;;;;5057925;28;20147;-77
2021/06/19 05:20:40;;;;;;;9.02;5.07;;;21.50;99.90;;;;;;5057953;28;20047;-77
2021/06/19 05:23:09;;;;;;;7.57;4.55;;;21.50;99.90;;;;;;5053775;28;20047;-76
2021/06/19 05:25:37;;;;;;;5.55;3.88;;;21.50;99.90;;;;;;5062037;28;20036;-77
2021/06/19 05:28:03;;;;;;;5.47;3.55;;;21.60;99.90;;;;;;5058686;28;20067;-77
2021/06/19 05:30:28;;;;;;;5.32;2.80;;;21.60;99.90;;;;;;5063044;28;20020;-77
2021/06/19 05:32:59;;;;;;;7.53;3.30;;;21.60;99.90;;;;;;5065467;28;20497;-77
2021/06/19 05:35:24;;;;;;;5.55;2.65;;;21.60;99.90;;;;;;5057050;28;20029;-77
2021/06/19 05:37:50;;;;;;;6.15;2.92;;;21.60;99.90;;;;;;5057941;28;20039;-77
2021/06/19 05:40:16;;;;;;;5.75;2.65;;;21.70;99.90;;;;;;5039867;28;20037;-77
2021/06/19 05:42:42;;;;;;;5.75;2.97;;;21.70;99.90;;;;;;5057385;28;20550;-77
2021/06/19 05:45:11;;;;;;;5.38;3.00;;;21.70;99.90;;;;;;5056982;28;20097;-77
2021/06/19 05:47:36;;;;;;;9.85;4.60;;;21.70;99.90;;;;;;5060129;28;20463;-77
2021/06/19 05:50:03;;;;;;;8.25;4.63;;;21.80;99.90;;;;;;5072835;28;20031;-77
2021/06/19 05:52:31;;;;;;;11.20;6.78;;;21.80;99.90;;;;;;5056847;28;20052;-77
2021/06/19 05:55:01;;;;;;;12.40;6.78;;;21.80;99.90;;;;;;5056238;28;20040;-77
2021/06/19 05:57:27;;;;;;;15.23;7.60;;;21.80;99.90;;;;;;5056171;28;20085;-77
2021/06/19 05:59:52;;;;;;;14.60;8.60;;;21.80;99.90;;;;;;5055070;28;20025;-77
2021/06/19 06:02:18;;;;;;;13.82;8.23;;;21.90;99.90;;;;;;5056597;28;20156;-77
2021/06/19 06:04:46;;;;;;;14.57;8.18;;;21.90;99.90;;;;;;5057506;28;20025;-77
2021/06/19 06:07:13;;;;;;;12.30;7.63;;;21.90;99.90;;;;;;5050377;28;20033;-77
2021/06/19 06:09:41;;;;;;;15.32;7.32;;;22.00;99.90;;;;;;5055827;28;20551;-77
2021/06/19 06:12:07;;;;;;;11.45;7.25;;;22.00;99.90;;;;;;5059408;28;20048;-77
2021/06/19 06:14:36;;;;;;;11.63;8.10;;;22.10;99.90;;;;;;5055701;28;20028;-77
2021/06/19 06:17:04;;;;;;;16.05;8.32;;;22.10;99.90;;;;;;5057227;28;20051;-78
2021/06/19 06:19:30;;;;;;;17.75;7.82;;;22.10;99.90;;;;;;5056230;28;20047;-77
2021/06/19 06:21:55;;;;;;;10.57;7.38;;;22.10;99.90;;;;;;5057063;28;20041;-78
2021/06/19 06:24:23;;;;;;;12.35;6.82;;;22.20;99.90;;;;;;5060015;28;20426;-77
2021/06/19 06:26:49;;;;;;;9.50;7.00;;;22.20;99.90;;;;;;5061938;28;20134;-77
2021/06/19 06:29:14;;;;;;;11.43;7.03;;;22.30;99.90;;;;;;5060386;28;20044;-77
2021/06/19 06:31:40;;;;;;;12.48;6.60;;;22.30;99.90;;;;;;5058688;28;20029;-77
2021/06/19 06:34:06;;;;;;;11.40;6.50;;;22.30;99.90;;;;;;5060050;28;20056;-78
2021/06/19 06:36:34;;;;;;;19.67;7.65;;;22.30;99.90;;;;;;5061566;28;20094;-78
2021/06/19 06:39:04;;;;;;;13.82;6.85;;;22.30;99.90;;;;;;5058196;28;20067;-77
2021/06/19 06:41:30;;;;;;;10.20;6.55;;;22.40;99.90;;;;;;5053740;28;20450;-77
2021/06/19 06:43:56;;;;;;;11.57;6.32;;;22.40;99.90;;;;;;5042505;28;20095;-77
2021/06/19 06:46:22;;;;;;;12.27;6.25;;;22.40;99.90;;;;;;5057092;28;20036;-78
2021/06/19 06:48:48;;;;;;;13.40;6.90;;;22.50;99.90;;;;;;5060569;28;20029;-77
2021/06/19 06:51:16;;;;;;;10.75;6.80;;;22.50;99.90;;;;;;5058244;28;20037;-77
2021/06/19 06:53:44;;;;;;;9.85;6.60;;;22.60;99.90;;;;;;5056721;28;20056;-78
2021/06/19 06:56:10;;;;;;;9.63;6.50;;;22.60;99.90;;;;;;5059298;28;20117;-77
2021/06/19 06:58:35;;;;;;;11.43;6.55;;;22.60;99.90;;;;;;5056343;28;20090;-78
2021/06/19 07:01:01;;;;;;;11.88;6.82;;;22.70;99.90;;;;;;5056539;28;20758;-78
2021/06/19 07:03:27;;;;;;;13.60;6.68;;;22.70;99.90;;;;;;5056520;28;20037;-77
2021/06/19 07:05:55;;;;;;;10.38;7.05;;;22.70;99.90;;;;;;5058325;28;20029;-77
2021/06/19 07:08:25;;;;;;;10.93;6.30;;;22.80;99.90;;;;;;5055080;28;20037;-78
2021/06/19 07:10:51;;;;;;;8.40;5.43;;;22.90;99.90;;;;;;5061562;28;20390;-78
2021/06/19 07:13:16;;;;;;;11.23;6.15;;;22.90;99.90;;;;;;5063013;28;20035;-77
2021/06/19 07:15:43;;;;;;;9.18;5.63;;;22.90;99.90;;;;;;5060489;28;20025;-77
2021/06/19 07:18:09;;;;;;;10.45;6.60;;;23.00;99.90;;;;;;5065817;28;20029;-77
2021/06/19 07:20:35;;;;;;;9.48;5.88;;;23.10;99.90;;;;;;5051820;28;20579;-78
2021/06/19 07:23:02;;;;;;;9.90;5.88;;;23.10;99.90;;;;;;5065725;28;20029;-77
2021/06/19 07:25:28;;;;;;;8.45;5.60;;;23.20;99.90;;;;;;5066857;28;20032;-78
2021/06/19 07:27:54;;;;;;;11.88;6.03;;;23.20;99.90;;;;;;5062023;28;20085;-77
2021/06/19 07:30:23;;;;;;;11.32;5.80;;;23.30;99.90;;;;;;5068467;28;20192;-77
2021/06/19 07:32:48;;;;;;;9.77;5.30;;;23.40;99.90;;;;;;5052892;28;20373;-78
2021/06/19 07:35:17;;;;;;;10.38;5.50;;;23.40;99.90;;;;;;5062172;28;20024;-77
2021/06/19 07:37:42;;;;;;;8.55;5.10;;;23.50;99.90;;;;;;5063635;28;20079;-77
2021/06/19 07:40:08;;;;;;;9.57;5.85;;;23.70;99.90;;;;;;5059888;28;20056;-77
2021/06/19 07:42:37;;;;;;;8.02;5.00;;;23.80;99.90;;;;;;5059193;28;20063;-77
2021/06/19 07:45:07;;;;;;;7.43;4.82;;;24.00;99.90;;;;;;5064469;28;20033;-77
2021/06/19 07:47:33;;;;;;;8.05;5.07;;;24.30;99.90;;;;;;5048021;28;20185;-77
2021/06/19 07:49:58;;;;;;;9.57;5.22;;;24.50;99.90;;;;;;5059115;28;20055;-80
2021/06/19 07:52:24;;;;;;;14.20;5.70;;;24.60;99.90;;;;;;5059246;28;20999;-77
2021/06/19 07:54:52;;;;;;;8.73;4.70;;;24.80;99.90;;;;;;5056422;28;20097;-78
2021/06/19 07:57:20;;;;;;;6.93;4.30;;;25.00;99.90;;;;;;5058551;28;20020;-78
2021/06/19 07:59:46;;;;;;;7.47;4.50;;;25.10;99.90;;;;;;5059144;28;20460;-78
2021/06/19 08:02:12;;;;;;;7.55;4.40;;;25.30;99.90;;;;;;5058414;28;20029;-78
2021/06/19 08:04:39;;;;;;;8.52;4.60;;;25.50;99.90;;;;;;5061489;28;20408;-79
2021/06/19 08:07:05;;;;;;;6.75;4.32;;;25.70;99.90;;;;;;5063303;28;20032;-79
2021/06/19 08:09:31;;;;;;;10.15;4.35;;;25.90;99.90;;;;;;5061128;28;20838;-78
2021/06/19 08:12:00;;;;;;;6.10;3.80;;;26.10;99.90;;;;;;5055457;28;20103;-78
2021/06/19 08:14:25;;;;;;;11.70;3.90;;;26.30;99.90;;;;;;5040831;28;20035;-79
2021/06/19 08:16:56;;;;;;;8.70;3.92;;;26.30;95.00;;;;;;5058504;28;21455;-74
2021/06/19 08:19:24;;;;;;;12.30;8.90;;;26.40;98.00;;;;;;5058022;28;21938;-73
2021/06/19 08:21:50;;;;;;;18.98;6.20;;;26.50;99.90;;;;;;5059319;28;20045;-78
2021/06/19 08:24:16;;;;;;;9.25;4.22;;;26.60;99.90;;;;;;5056669;28;20102;-81
2021/06/19 08:26:44;;;;;;;9.32;3.95;;;26.70;94.90;;;;;;5059591;28;20024;-78
2021/06/19 08:29:18;;;;;;;10.65;4.22;;;26.60;92.10;;;;;;5061226;28;20039;-79
2021/06/19 08:31:47;;;;;;;9.77;4.07;;;26.70;95.80;;;;;;5078623;28;20360;-78
2021/06/19 08:34:13;;;;;;;7.25;3.88;;;26.80;99.90;;;;;;5056010;28;20028;-78
2021/06/19 08:36:38;;;;;;;11.10;4.30;;;26.90;97.80;;;;;;5056381;28;20031;-78
2021/06/19 08:39:08;;;;;;;6.35;3.85;;;26.90;99.90;;;;;;5058041;28;20044;-79
2021/06/19 08:41:50;;;;;;;7.85;3.75;;;27.00;93.10;;;;;;5057466;28;20040;-79
2021/06/19 08:44:21;;;;;;;6.55;3.75;;;27.00;92.70;;;;;;5058832;28;20021;-78
2021/06/19 08:46:48;;;;;;;5.25;3.60;;;27.20;96.70;;;;;;5061186;28;20032;-78
2021/06/19 08:49:13;;;;;;;12.00;4.65;;;27.30;95.90;;;;;;5060038;28;20060;-79
2021/06/19 08:51:39;;;;;;;9.93;4.55;;;27.30;99.90;;;;;;5056891;28;20123;-73
2021/06/19 08:54:07;;;;;;;8.43;4.05;;;27.40;98.70;;;;;;4708142;28;9999891;-74
2021/06/19 08:56:33;;;;;;;13.90;9.70;;;27.40;96.60;;;;;;5059983;28;20458;-74
2021/06/19 08:59:01;;;;;;;10.18;7.57;;;27.50;99.90;;;;;;5056236;28;20035;-78
2021/06/19 09:01:28;;;;;;;12.20;4.53;;;27.60;99.90;;;;;;5056772;28;20473;-75
2021/06/19 09:03:54;;;;;;;13.38;4.85;;;27.50;87.60;;;;;;5055288;28;20063;-76
2021/06/19 09:06:22;;;;;;;9.80;4.40;;;27.60;95.00;;;;;;5055649;28;20119;-77
2021/06/19 09:09:07;;;;;;;11.82;4.88;;;27.70;98.50;;;;;;5056512;28;20047;-78
2021/06/19 09:11:49;;;;;;;8.40;4.78;;;27.80;97.30;;;;;;5057665;28;20052;-78
2021/06/19 09:14:24;;;;;;;10.18;6.07;;;27.90;88.00;;;;;;5061428;28;20032;-78
2021/06/19 09:16:59;;;;;;;8.25;4.28;;;27.90;94.10;;;;;;5044592;28;20020;-78
2021/06/19 09:19:37;;;;;;;14.05;5.25;;;28.00;92.90;;;;;;5062322;28;20112;-76
2021/06/19 09:22:10;;;;;;;10.77;4.90;;;27.90;92.20;;;;;;5057996;28;20746;-77
2021/06/19 09:24:49;;;;;;;13.05;5.20;;;28.00;93.10;;;;;;5060747;28;20077;-77
2021/06/19 09:27:36;;;;;;;7.63;4.13;;;27.90;81.30;;;;;;5057648;28;20136;-76
2021/06/19 09:30:09;;;;;;;9.88;4.75;;;27.90;90.00;;;;;;5055739;28;20063;-78
2021/06/19 09:32:40;;;;;;;8.95;4.82;;;27.90;85.80;;;;;;5053630;28;20036;-78
2021/06/19 09:35:19;;;;;;;8.65;4.50;;;27.90;88.70;;;;;;5042973;28;20131;-83
2021/06/19 09:37:47;;;;;;;14.70;4.57;;;27.80;75.90;;;;;;5078314;28;20028;-77
2021/06/19 09:40:46;;;;;;;6.70;4.25;;;27.80;85.50;;;;;;5037795;28;20020;-78
2021/06/19 09:43:27;;;;;;;9.65;5.00;;;27.80;78.40;;;;;;5020990;28;20032;-73
2021/06/19 09:46:00;;;;;;;12.10;7.15;;;27.80;91.90;;;;;;5052103;28;20021;-71
2021/06/19 09:48:43;;;;;;;9.00;4.72;;;27.80;77.30;;;;;;5054269;28;20040;-75
2021/06/19 09:51:15;;;;;;;8.30;4.41;;;27.80;91.10;;;;;;4726955;28;10000600;-78
2021/06/19 09:53:44;;;;;;;11.02;4.88;;;27.70;78.30;;;;;;5058732;28;20119;-77
2021/06/19 09:56:11;;;;;;;9.75;4.40;;;27.70;87.30;;;;;;5057218;28;20033;-77
2021/06/19 09:58:44;;;;;;;8.98;4.32;;;27.60;78.60;;;;;;5064232;28;20028;-77
2021/06/19 10:01:10;;;;;;;7.65;4.70;;;27.70;87.00;;;;;;5056915;28;20028;-76
2021/06/19 10:03:55;;;;;;;10.43;5.85;;;27.80;94.30;;;;;;5057346;28;20025;-77
2021/06/19 10:06:24;;;;;;;10.40;5.85;;;27.80;84.50;;;;;;5054789;28;20035;-77
2021/06/19 10:08:55;;;;;;;8.00;4.72;;;27.80;87.50;;;;;;5057344;28;20036;-77
2021/06/19 10:11:24;;;;;;;14.20;5.22;;;27.90;91.00;;;;;;5075582;28;20086;-77
2021/06/19 10:13:52;;;;;;;11.52;4.57;;;27.90;86.40;;;;;;5058555;28;20028;-77
2021/06/19 10:16:18;;;;;;;8.93;4.80;;;27.80;78.00;;;;;;5058910;28;20135;-78
2021/06/19 10:18:44;;;;;;;9.98;4.93;;;27.80;83.00;;;;;;5057748;28;20051;-77
2021/06/19 10:21:11;;;;;;;7.82;4.95;;;27.90;82.00;;;;;;5060322;28;20055;-78
2021/06/19 10:23:36;;;;;;;10.38;5.07;;;27.90;78.10;;;;;;5063008;28;20041;-78
2021/06/19 10:26:05;;;;;;;15.32;5.70;;;28.00;86.60;;;;;;5042592;28;20825;-78
2021/06/19 10:28:31;;;;;;;7.85;4.43;;;28.00;76.50;;;;;;5059836;28;20540;-77
2021/06/19 10:31:01;;;;;;;9.18;5.18;;;28.10;83.10;;;;;;5039001;28;20052;-77
2021/06/19 10:33:27;;;;;;;10.57;5.22;;;28.20;91.30;;;;;;5065124;28;20142;-81
2021/06/19 10:35:53;;;;;;;9.88;4.82;;;28.20;79.80;;;;;;5061633;28;20465;-79
2021/06/19 10:38:19;;;;;;;12.68;5.00;;;28.20;77.00;;;;;;5063683;28;20025;-78
2021/06/19 10:40:57;;;;;;;10.35;5.20;;;28.20;77.20;;;;;;5058589;28;20024;-77
2021/06/19 10:43:23;;;;;;;9.68;4.80;;;28.30;78.30;;;;;;5059947;28;20175;-78
2021/06/19 10:45:50;;;;;;;8.75;4.47;;;28.40;81.10;;;;;;5048679;28;20464;-71
2021/06/19 10:48:18;;;;;;;8.48;4.30;;;28.40;77.50;;;;;;5059908;28;20016;-72
2021/06/19 10:50:51;;;;;;;9.52;5.63;;;28.30;74.60;;;;;;5061143;28;20528;-72
2021/06/19 10:53:18;;;;;;;7.53;4.50;;;28.40;79.60;;;;;;5062242;28;20029;-77
2021/06/19 10:55:43;;;;;;;16.75;12.52;;;28.40;79.10;;;;;;5067350;28;20044;-76
2021/06/19 10:58:29;;;;;;;12.45;5.63;;;28.50;77.10;;;;;;5082474;28;20024;-77
2021/06/19 11:00:58;;;;;;;7.55;4.47;;;28.50;72.30;;;;;;5066017;28;20029;-76
2021/06/19 11:03:39;;;;;;;10.35;4.63;;;28.60;80.00;;;;;;5065575;28;20044;-76
2021/06/19 11:06:30;;;;;;;10.35;4.43;;;28.60;76.60;;;;;;5073237;28;20036;-76
2021/06/19 11:09:02;;;;;;;9.02;4.53;;;28.80;75.20;;;;;;5065146;28;20032;-76
2021/06/19 11:11:46;;;;;;;9.40;4.68;;;28.80;78.40;;;;;;5068863;28;20025;-76
2021/06/19 11:14:12;;;;;;;9.40;4.57;;;28.90;73.60;;;;;;5063432;28;20048;-76
2021/06/19 11:16:38;;;;;;;9.48;4.43;;;29.00;83.50;;;;;;5062674;28;20037;-77
2021/06/19 11:19:03;;;;;;;10.38;4.43;;;29.10;82.20;;;;;;5063358;28;20032;-78
2021/06/19 11:21:33;;;;;;;10.93;4.70;;;29.00;73.50;;;;;;5063300;28;20060;-76
2021/06/19 11:24:01;;;;;;;7.53;4.25;;;29.10;74.60;;;;;;5064261;28;20477;-75
2021/06/19 11:26:53;;;;;;;6.45;4.05;;;29.10;74.10;;;;;;5063160;28;20059;-77
2021/06/19 11:29:34;;;;;;;10.90;4.82;;;29.10;66.50;;;;;;5068836;28;20025;-77
2021/06/19 11:32:25;;;;;;;12.00;5.82;;;29.30;82.50;;;;;;5064150;28;20098;-73
2021/06/19 11:34:52;;;;;;;12.18;5.07;;;29.20;69.50;;;;;;5057634;28;20048;-72
2021/06/19 11:37:18;;;;;;;11.18;4.53;;;29.40;73.60;;;;;;5063011;28;20053;-77
2021/06/19 11:39:43;;;;;;;10.02;4.55;;;29.30;71.30;;;;;;5061469;28;20064;-76
2021/06/19 11:42:09;;;;;;;9.57;4.57;;;29.40;75.90;;;;;;5064374;28;20090;-75
2021/06/19 11:44:40;;;;;;;7.97;4.40;;;29.50;74.90;;;;;;5062080;28;20028;-77
2021/06/19 11:47:07;;;;;;;8.50;5.05;;;29.60;73.80;;;;;;5059499;28;20028;-75
2021/06/19 11:49:37;;;;;;;16.05;5.68;;;29.60;71.50;;;;;;5034960;28;20090;-75
2021/06/19 11:52:04;;;;;;;9.73;4.57;;;29.60;70.40;;;;;;5061136;28;20596;-75
2021/06/19 11:54:30;;;;;;;9.02;4.85;;;29.70;75.50;;;;;;5063104;28;20043;-75
2021/06/19 11:56:59;;;;;;;7.60;4.18;;;29.70;71.00;;;;;;5060429;28;20382;-76
2021/06/19 11:59:30;;;;;;;12.05;4.95;;;29.90;72.10;;;;;;5061914;28;20055;-75
2021/06/19 12:01:58;;;;;;;;;;;30.00;71.60;;;;;;5061781;28;20468;-76
2021/06/19 12:04:28;;;;;;;10.75;5.10;;;29.90;68.20;;;;;;5063178;28;19916;-79
2021/06/19 12:06:58;;;;;;;11.13;4.80;;;29.90;69.40;;;;;;5065518;28;20111;-80
2021/06/19 12:09:34;;;;;;;8.67;5.00;;;30.00;66.20;;;;;;5063620;28;20028;-76
2021/06/19 12:12:06;;;;;;;12.55;5.20;;;30.00;69.60;;;;;;5084668;28;20270;-74
2021/06/19 12:14:33;;;;;;;9.85;4.80;;;30.00;67.10;;;;;;5062347;28;20029;-75
2021/06/19 12:17:19;;;;;;;12.40;5.05;;;29.90;67.30;;;;;;5064220;28;20048;-79
2021/06/19 12:19:47;;;;;;;11.30;4.88;;;30.10;65.80;;;;;;5061954;28;20044;-79
2021/06/19 12:22:18;;;;;;;14.23;4.78;;;29.90;63.80;;;;;;5064397;28;20032;-77
2021/06/19 12:24:48;;;;;;;9.55;5.05;;;30.10;75.60;;;;;;5063333;28;20123;-77
2021/06/19 12:27:16;;;;;;;13.68;4.97;;;30.10;73.40;;;;;;5064127;28;20517;-77
2021/06/19 12:29:58;;;;;;;9.70;4.25;;;30.20;73.10;;;;;;5071735;28;20066;-81
2021/06/19 12:32:34;;;;;;;8.10;4.00;;;30.10;62.70;;;;;;5060624;28;20039;-80
2021/06/19 12:35:07;;;;;;;11.63;4.60;;;29.90;62.30;;;;;;5061672;28;20021;-79
2021/06/19 12:37:34;;;;;;;7.82;4.30;;;30.10;66.30;;;;;;5061390;28;20024;-77
2021/06/19 12:40:01;;;;;;;9.27;4.50;;;30.20;68.80;;;;;;5062050;28;20029;-77
2021/06/19 12:42:39;;;;;;;6.97;3.60;;;30.30;69.60;;;;;;5059619;28;20064;-72
2021/06/19 12:45:14;;;;;;;6.47;3.60;;;30.20;63.10;;;;;;5062779;28;20373;-75
2021/06/19 12:47:43;;;;;;;8.40;3.92;;;30.20;61.80;;;;;;5080907;28;20017;-74